sensor_id;sensor_type;location;lat;lon;timestamp;temperature;humidity
22379;DHT22;11357;49.990;7.370;2024-01-30T00:01:22;6.20;91.80
22379;DHT22;11357;49.990;7.370;2024-01-30T00:03:48;6.20;91.80
22379;DHT22;11357;49.990;7.370;2024-01-30T00:06:14;6.20;91.80
22379;DHT22;11357;49.990;7.370;2024-01-30T00:08:39;6.20;91.90
22379;DHT22;11357;49.990;7.370;2024-01-30T00:11:05;6.20;91.90
22379;DHT22;11357;49.990;7.370;2024-01-30T00:13:32;6.20;92.00
22379;DHT22;11357;49.990;7.370;2024-01-30T00:15:58;6.10;92.00
22379;DHT22;11357;49.990;7.370;2024-01-30T00:18:23;6.10;92.40
22379;DHT22;11357;49.990;7.370;2024-01-30T00:20:49;6.10;92.20
22379;DHT22;11357;49.990;7.370;2024-01-30T00:23:15;6.10;92.30
22379;DHT22;11357;49.990;7.370;2024-01-30T00:25:40;6.10;92.30
22379;DHT22;11357;49.990;7.370;2024-01-30T00:28:06;6.10;92.40
22379;DHT22;11357;49.990;7.370;2024-01-30T00:30:31;6.20;92.50
22379;DHT22;11357;49.990;7.370;2024-01-30T00:32:57;6.20;92.40
22379;DHT22;11357;49.990;7.370;2024-01-30T00:35:23;6.20;92.40
22379;DHT22;11357;49.990;7.370;2024-01-30T00:37:48;6.20;92.40
22379;DHT22;11357;49.990;7.370;2024-01-30T00:40:14;6.20;92.40
22379;DHT22;11357;49.990;7.370;2024-01-30T00:42:44;6.30;92.50
22379;DHT22;11357;49.990;7.370;2024-01-30T00:45:16;6.20;92.50
22379;DHT22;11357;49.990;7.370;2024-01-30T00:47:43;6.30;92.50
22379;DHT22;11357;49.990;7.370;2024-01-30T00:50:09;6.30;92.50
22379;DHT22;11357;49.990;7.370;2024-01-30T00:52:35;6.30;92.40
22379;DHT22;11357;49.990;7.370;2024-01-30T00:55:01;6.30;92.40
22379;DHT22;11357;49.990;7.370;2024-01-30T00:57:26;6.30;92.40
22379;DHT22;11357;49.990;7.370;2024-01-30T00:59:52;6.30;92.50
22379;DHT22;11357;49.990;7.370;2024-01-30T01:02:18;6.20;92.40
22379;DHT22;11357;49.990;7.370;2024-01-30T01:04:44;6.20;92.50
22379;DHT22;11357;49.990;7.370;2024-01-30T01:07:10;6.20;92.40
22379;DHT22;11357;49.990;7.370;2024-01-30T01:09:36;6.20;92.40
22379;DHT22;11357;49.990;7.370;2024-01-30T01:12:03;6.20;92.40
22379;DHT22;11357;49.990;7.370;2024-01-30T01:14:29;6.20;92.30
22379;DHT22;11357;49.990;7.370;2024-01-30T01:16:55;6.20;92.30
22379;DHT22;11357;49.990;7.370;2024-01-30T01:19:21;6.20;92.30
22379;DHT22;11357;49.990;7.370;2024-01-30T01:21:47;6.20;92.30
22379;DHT22;11357;49.990;7.370;2024-01-30T01:24:13;6.20;92.30
22379;DHT22;11357;49.990;7.370;2024-01-30T01:26:38;6.20;92.30
22379;DHT22;11357;49.990;7.370;2024-01-30T01:29:04;6.20;92.20
22379;DHT22;11357;49.990;7.370;2024-01-30T01:31:36;6.20;92.30
22379;DHT22;11357;49.990;7.370;2024-01-30T01:34:05;6.10;92.30
22379;DHT22;11357;49.990;7.370;2024-01-30T01:36:31;6.10;92.30
22379;DHT22;11357;49.990;7.370;2024-01-30T01:38:57;6.10;92.30
22379;DHT22;11357;49.990;7.370;2024-01-30T01:41:22;6.10;92.40
22379;DHT22;11357;49.990;7.370;2024-01-30T01:43:48;6.10;92.40
22379;DHT22;11357;49.990;7.370;2024-01-30T01:46:13;6.10;92.50
22379;DHT22;11357;49.990;7.370;2024-01-30T01:48:39;6.10;92.60
22379;DHT22;11357;49.990;7.370;2024-01-30T01:51:06;6.10;92.60
22379;DHT22;11357;49.990;7.370;2024-01-30T01:53:32;6.10;92.60
22379;DHT22;11357;49.990;7.370;2024-01-30T01:55:58;6.20;92.50
22379;DHT22;11357;49.990;7.370;2024-01-30T01:58:27;6.20;92.40
22379;DHT22;11357;49.990;7.370;2024-01-30T02:00:54;6.20;92.40
22379;DHT22;11357;49.990;7.370;2024-01-30T02:03:21;6.20;92.30
22379;DHT22;11357;49.990;7.370;2024-01-30T02:05:47;6.20;92.30
22379;DHT22;11357;49.990;7.370;2024-01-30T02:08:13;6.10;92.20
22379;DHT22;11357;49.990;7.370;2024-01-30T02:10:38;6.10;92.30
22379;DHT22;11357;49.990;7.370;2024-01-30T02:13:04;6.00;92.30
22379;DHT22;11357;49.990;7.370;2024-01-30T02:15:30;6.00;92.30
22379;DHT22;11357;49.990;7.370;2024-01-30T02:17:56;6.00;92.30
22379;DHT22;11357;49.990;7.370;2024-01-30T02:20:23;6.00;92.30
22379;DHT22;11357;49.990;7.370;2024-01-30T02:22:52;6.00;92.40
22379;DHT22;11357;49.990;7.370;2024-01-30T02:25:19;6.00;92.40
22379;DHT22;11357;49.990;7.370;2024-01-30T02:27:45;5.90;92.40
22379;DHT22;11357;49.990;7.370;2024-01-30T02:30:11;5.90;92.50
22379;DHT22;11357;49.990;7.370;2024-01-30T02:32:37;5.90;92.60
22379;DHT22;11357;49.990;7.370;2024-01-30T02:35:03;5.90;92.70
22379;DHT22;11357;49.990;7.370;2024-01-30T02:37:28;5.90;92.70
22379;DHT22;11357;49.990;7.370;2024-01-30T02:39:54;6.00;92.80
22379;DHT22;11357;49.990;7.370;2024-01-30T02:42:20;6.00;92.70
22379;DHT22;11357;49.990;7.370;2024-01-30T02:44:45;6.00;92.60
22379;DHT22;11357;49.990;7.370;2024-01-30T02:47:11;6.00;92.50
22379;DHT22;11357;49.990;7.370;2024-01-30T02:49:37;5.90;92.40
22379;DHT22;11357;49.990;7.370;2024-01-30T02:52:02;5.90;92.30
22379;DHT22;11357;49.990;7.370;2024-01-30T02:54:28;5.80;92.30
22379;DHT22;11357;49.990;7.370;2024-01-30T02:56:56;5.80;92.20
22379;DHT22;11357;49.990;7.370;2024-01-30T02:59:21;5.80;92.30
22379;DHT22;11357;49.990;7.370;2024-01-30T03:01:47;5.80;92.30
22379;DHT22;11357;49.990;7.370;2024-01-30T03:04:13;5.70;92.20
22379;DHT22;11357;49.990;7.370;2024-01-30T03:06:39;5.70;92.30
22379;DHT22;11357;49.990;7.370;2024-01-30T03:09:09;5.70;92.30
22379;DHT22;11357;49.990;7.370;2024-01-30T03:11:36;5.70;92.30
22379;DHT22;11357;49.990;7.370;2024-01-30T03:14:01;5.70;92.30
22379;DHT22;11357;49.990;7.370;2024-01-30T03:16:27;5.70;92.40
22379;DHT22;11357;49.990;7.370;2024-01-30T03:18:53;5.70;92.40
22379;DHT22;11357;49.990;7.370;2024-01-30T03:21:18;5.70;92.30
22379;DHT22;11357;49.990;7.370;2024-01-30T03:23:44;5.70;92.30
22379;DHT22;11357;49.990;7.370;2024-01-30T03:26:09;5.60;92.30
22379;DHT22;11357;49.990;7.370;2024-01-30T03:28:36;5.70;92.30
22379;DHT22;11357;49.990;7.370;2024-01-30T03:31:02;5.60;92.30
22379;DHT22;11357;49.990;7.370;2024-01-30T03:33:27;5.60;92.20
22379;DHT22;11357;49.990;7.370;2024-01-30T03:35:53;5.60;92.30
22379;DHT22;11357;49.990;7.370;2024-01-30T03:38:19;5.60;92.30
22379;DHT22;11357;49.990;7.370;2024-01-30T03:40:45;5.60;92.30
22379;DHT22;11357;49.990;7.370;2024-01-30T03:43:11;5.60;92.20
22379;DHT22;11357;49.990;7.370;2024-01-30T03:45:36;5.60;92.20
22379;DHT22;11357;49.990;7.370;2024-01-30T03:48:02;5.60;92.20
22379;DHT22;11357;49.990;7.370;2024-01-30T03:50:28;5.60;92.20
22379;DHT22;11357;49.990;7.370;2024-01-30T03:52:53;5.50;92.10
22379;DHT22;11357;49.990;7.370;2024-01-30T03:55:19;5.60;92.20
22379;DHT22;11357;49.990;7.370;2024-01-30T03:57:45;5.60;92.20
22379;DHT22;11357;49.990;7.370;2024-01-30T04:00:11;5.50;92.10
22379;DHT22;11357;49.990;7.370;2024-01-30T04:02:36;5.50;92.20
22379;DHT22;11357;49.990;7.370;2024-01-30T04:05:02;5.40;92.20
22379;DHT22;11357;49.990;7.370;2024-01-30T04:07:28;5.50;92.30
22379;DHT22;11357;49.990;7.370;2024-01-30T04:09:54;5.50;92.30
22379;DHT22;11357;49.990;7.370;2024-01-30T04:12:20;5.50;92.30
22379;DHT22;11357;49.990;7.370;2024-01-30T04:14:45;5.40;92.30
22379;DHT22;11357;49.990;7.370;2024-01-30T04:17:11;5.50;92.30
22379;DHT22;11357;49.990;7.370;2024-01-30T04:19:37;5.40;92.30
22379;DHT22;11357;49.990;7.370;2024-01-30T04:22:04;5.40;92.30
22379;DHT22;11357;49.990;7.370;2024-01-30T04:24:29;5.40;92.40
22379;DHT22;11357;49.990;7.370;2024-01-30T04:26:55;5.40;92.40
22379;DHT22;11357;49.990;7.370;2024-01-30T04:29:21;5.40;92.50
22379;DHT22;11357;49.990;7.370;2024-01-30T04:31:47;5.40;92.50
22379;DHT22;11357;49.990;7.370;2024-01-30T04:34:13;5.50;92.50
22379;DHT22;11357;49.990;7.370;2024-01-30T04:36:39;5.50;92.50
22379;DHT22;11357;49.990;7.370;2024-01-30T04:39:04;5.50;92.50
22379;DHT22;11357;49.990;7.370;2024-01-30T04:41:30;5.50;92.50
22379;DHT22;11357;49.990;7.370;2024-01-30T04:43:57;5.50;92.50
22379;DHT22;11357;49.990;7.370;2024-01-30T04:46:23;5.50;92.50
22379;DHT22;11357;49.990;7.370;2024-01-30T05:50:49;5.30;92.20
22379;DHT22;11357;49.990;7.370;2024-01-30T05:53:15;5.30;92.20
22379;DHT22;11357;49.990;7.370;2024-01-30T05:55:41;5.20;92.20
22379;DHT22;11357;49.990;7.370;2024-01-30T05:58:06;5.20;92.30
22379;DHT22;11357;49.990;7.370;2024-01-30T06:00:32;5.20;92.40
22379;DHT22;11357;49.990;7.370;2024-01-30T06:02:58;5.20;92.40
22379;DHT22;11357;49.990;7.370;2024-01-30T06:05:23;5.30;92.50
22379;DHT22;11357;49.990;7.370;2024-01-30T06:07:49;5.20;92.40
22379;DHT22;11357;49.990;7.370;2024-01-30T06:10:14;5.20;92.40
22379;DHT22;11357;49.990;7.370;2024-01-30T06:12:40;5.30;92.50
22379;DHT22;11357;49.990;7.370;2024-01-30T06:15:06;5.20;92.50
22379;DHT22;11357;49.990;7.370;2024-01-30T06:17:32;5.20;92.50
22379;DHT22;11357;49.990;7.370;2024-01-30T06:19:58;5.20;92.50
22379;DHT22;11357;49.990;7.370;2024-01-30T06:22:23;5.10;92.50
22379;DHT22;11357;49.990;7.370;2024-01-30T06:24:49;5.10;92.50
22379;DHT22;11357;49.990;7.370;2024-01-30T06:27:15;5.20;92.60
22379;DHT22;11357;49.990;7.370;2024-01-30T06:29:42;5.20;92.60
22379;DHT22;11357;49.990;7.370;2024-01-30T06:32:08;5.20;92.60
22379;DHT22;11357;49.990;7.370;2024-01-30T06:34:33;5.20;92.70
22379;DHT22;11357;49.990;7.370;2024-01-30T06:36:59;5.30;92.70
22379;DHT22;11357;49.990;7.370;2024-01-30T06:39:26;5.30;92.70
22379;DHT22;11357;49.990;7.370;2024-01-30T06:41:51;5.20;92.70
22379;DHT22;11357;49.990;7.370;2024-01-30T06:44:17;5.30;92.80
22379;DHT22;11357;49.990;7.370;2024-01-30T06:46:42;5.30;92.70
22379;DHT22;11357;49.990;7.370;2024-01-30T06:49:08;5.30;92.70
22379;DHT22;11357;49.990;7.370;2024-01-30T06:51:34;5.30;92.60
22379;DHT22;11357;49.990;7.370;2024-01-30T06:53:59;5.30;92.60
22379;DHT22;11357;49.990;7.370;2024-01-30T06:56:25;5.30;92.60
22379;DHT22;11357;49.990;7.370;2024-01-30T06:58:51;5.20;92.60
22379;DHT22;11357;49.990;7.370;2024-01-30T07:01:17;5.20;92.50
22379;DHT22;11357;49.990;7.370;2024-01-30T07:03:43;5.20;92.50
22379;DHT22;11357;49.990;7.370;2024-01-30T07:06:09;5.20;92.60
22379;DHT22;11357;49.990;7.370;2024-01-30T07:08:38;5.20;92.60
22379;DHT22;11357;49.990;7.370;2024-01-30T07:11:07;5.20;92.70
22379;DHT22;11357;49.990;7.370;2024-01-30T07:13:33;5.30;92.90
22379;DHT22;11357;49.990;7.370;2024-01-30T07:15:59;5.30;92.60
22379;DHT22;11357;49.990;7.370;2024-01-30T07:18:25;5.30;92.60
22379;DHT22;11357;49.990;7.370;2024-01-30T07:20:50;5.30;92.50
22379;DHT22;11357;49.990;7.370;2024-01-30T07:23:17;5.30;92.50
22379;DHT22;11357;49.990;7.370;2024-01-30T07:25:44;5.30;92.50
22379;DHT22;11357;49.990;7.370;2024-01-30T07:28:10;5.40;92.60
22379;DHT22;11357;49.990;7.370;2024-01-30T07:30:37;5.40;92.70
22379;DHT22;11357;49.990;7.370;2024-01-30T07:33:02;5.40;92.60
22379;DHT22;11357;49.990;7.370;2024-01-30T07:35:28;5.50;92.60
22379;DHT22;11357;49.990;7.370;2024-01-30T07:37:54;5.50;92.60
22379;DHT22;11357;49.990;7.370;2024-01-30T07:40:19;5.50;92.60
22379;DHT22;11357;49.990;7.370;2024-01-30T07:42:45;5.50;92.70
22379;DHT22;11357;49.990;7.370;2024-01-30T07:45:11;5.60;92.70
22379;DHT22;11357;49.990;7.370;2024-01-30T07:47:37;5.60;92.70
22379;DHT22;11357;49.990;7.370;2024-01-30T07:50:02;5.60;92.70
22379;DHT22;11357;49.990;7.370;2024-01-30T07:52:28;5.70;92.70
22379;DHT22;11357;49.990;7.370;2024-01-30T07:54:54;5.80;92.70
22379;DHT22;11357;49.990;7.370;2024-01-30T07:57:20;5.80;92.70
22379;DHT22;11357;49.990;7.370;2024-01-30T07:59:46;5.80;92.70
22379;DHT22;11357;49.990;7.370;2024-01-30T08:02:12;5.90;92.70
22379;DHT22;11357;49.990;7.370;2024-01-30T08:04:38;5.90;92.70
22379;DHT22;11357;49.990;7.370;2024-01-30T08:07:04;5.90;92.70
22379;DHT22;11357;49.990;7.370;2024-01-30T08:09:29;6.00;92.80
22379;DHT22;11357;49.990;7.370;2024-01-30T08:11:55;6.00;92.80
22379;DHT22;11357;49.990;7.370;2024-01-30T08:14:21;6.00;92.80
22379;DHT22;11357;49.990;7.370;2024-01-30T08:16:46;6.10;92.80
22379;DHT22;11357;49.990;7.370;2024-01-30T08:19:12;6.20;92.80
22379;DHT22;11357;49.990;7.370;2024-01-30T08:21:38;6.20;92.70
22379;DHT22;11357;49.990;7.370;2024-01-30T08:24:04;6.20;92.70
22379;DHT22;11357;49.990;7.370;2024-01-30T08:26:31;6.30;92.70
22379;DHT22;11357;49.990;7.370;2024-01-30T08:28:56;6.40;92.70
22379;DHT22;11357;49.990;7.370;2024-01-30T08:31:22;6.40;92.60
22379;DHT22;11357;49.990;7.370;2024-01-30T08:33:48;6.50;92.60
22379;DHT22;11357;49.990;7.370;2024-01-30T08:36:15;6.60;92.60
22379;DHT22;11357;49.990;7.370;2024-01-30T08:38:40;6.60;92.50
22379;DHT22;11357;49.990;7.370;2024-01-30T08:41:07;6.60;92.50
22379;DHT22;11357;49.990;7.370;2024-01-30T08:43:33;6.60;92.70
22379;DHT22;11357;49.990;7.370;2024-01-30T08:46:02;6.70;92.70
22379;DHT22;11357;49.990;7.370;2024-01-30T08:48:29;6.80;92.70
22379;DHT22;11357;49.990;7.370;2024-01-30T08:50:54;6.90;92.60
22379;DHT22;11357;49.990;7.370;2024-01-30T08:53:20;7.10;92.60
22379;DHT22;11357;49.990;7.370;2024-01-30T08:55:46;7.20;92.50
22379;DHT22;11357;49.990;7.370;2024-01-30T08:58:12;7.30;92.50
22379;DHT22;11357;49.990;7.370;2024-01-30T09:00:38;7.40;92.40
22379;DHT22;11357;49.990;7.370;2024-01-30T09:03:03;7.40;92.30
22379;DHT22;11357;49.990;7.370;2024-01-30T09:05:29;7.50;92.50
22379;DHT22;11357;49.990;7.370;2024-01-30T09:07:55;7.60;92.30
22379;DHT22;11357;49.990;7.370;2024-01-30T09:10:21;7.70;92.30
22379;DHT22;11357;49.990;7.370;2024-01-30T09:12:47;7.70;92.40
22379;DHT22;11357;49.990;7.370;2024-01-30T09:15:14;7.80;92.30
22379;DHT22;11357;49.990;7.370;2024-01-30T09:17:40;7.80;92.30
22379;DHT22;11357;49.990;7.370;2024-01-30T09:20:06;7.90;92.40
22379;DHT22;11357;49.990;7.370;2024-01-30T09:22:32;8.00;92.40
22379;DHT22;11357;49.990;7.370;2024-01-30T09:24:58;8.20;92.30
22379;DHT22;11357;49.990;7.370;2024-01-30T09:27:24;8.40;92.30
22379;DHT22;11357;49.990;7.370;2024-01-30T09:29:49;8.50;92.20
22379;DHT22;11357;49.990;7.370;2024-01-30T09:32:15;8.60;92.10
22379;DHT22;11357;49.990;7.370;2024-01-30T09:34:41;8.60;92.10
22379;DHT22;11357;49.990;7.370;2024-01-30T09:37:07;8.70;92.10
22379;DHT22;11357;49.990;7.370;2024-01-30T09:39:33;8.70;92.10
22379;DHT22;11357;49.990;7.370;2024-01-30T09:44:26;8.70;92.10
22379;DHT22;11357;49.990;7.370;2024-01-30T09:46:54;8.80;92.20
22379;DHT22;11357;49.990;7.370;2024-01-30T09:49:20;8.80;92.20
22379;DHT22;11357;49.990;7.370;2024-01-30T09:51:50;8.90;92.20
22379;DHT22;11357;49.990;7.370;2024-01-30T09:54:16;9.00;92.10
22379;DHT22;11357;49.990;7.370;2024-01-30T09:56:42;9.10;92.10
22379;DHT22;11357;49.990;7.370;2024-01-30T09:59:08;9.20;92.10
22379;DHT22;11357;49.990;7.370;2024-01-30T10:01:34;9.30;92.00
22379;DHT22;11357;49.990;7.370;2024-01-30T10:04:01;9.40;92.00
22379;DHT22;11357;49.990;7.370;2024-01-30T10:06:26;9.50;92.00
22379;DHT22;11357;49.990;7.370;2024-01-30T10:08:53;9.60;92.00
22379;DHT22;11357;49.990;7.370;2024-01-30T10:11:18;9.60;92.00
22379;DHT22;11357;49.990;7.370;2024-01-30T10:13:44;9.70;92.00
22379;DHT22;11357;49.990;7.370;2024-01-30T10:16:10;9.70;91.90
22379;DHT22;11357;49.990;7.370;2024-01-30T10:18:35;9.70;92.00
22379;DHT22;11357;49.990;7.370;2024-01-30T10:21:01;9.80;92.00
22379;DHT22;11357;49.990;7.370;2024-01-30T10:23:27;9.90;92.00
22379;DHT22;11357;49.990;7.370;2024-01-30T10:25:52;10.00;91.90
22379;DHT22;11357;49.990;7.370;2024-01-30T10:28:18;10.00;91.90
22379;DHT22;11357;49.990;7.370;2024-01-30T10:30:44;10.20;91.90
22379;DHT22;11357;49.990;7.370;2024-01-30T10:33:09;10.30;91.80
22379;DHT22;11357;49.990;7.370;2024-01-30T10:35:35;10.40;91.80
22379;DHT22;11357;49.990;7.370;2024-01-30T10:38:01;10.40;91.80
22379;DHT22;11357;49.990;7.370;2024-01-30T10:40:28;10.50;91.80
22379;DHT22;11357;49.990;7.370;2024-01-30T10:42:55;10.50;91.80
22379;DHT22;11357;49.990;7.370;2024-01-30T10:45:22;10.50;91.80
22379;DHT22;11357;49.990;7.370;2024-01-30T10:47:54;10.50;91.80
22379;DHT22;11357;49.990;7.370;2024-01-30T10:50:24;10.50;91.80
22379;DHT22;11357;49.990;7.370;2024-01-30T10:52:50;10.60;91.80
22379;DHT22;11357;49.990;7.370;2024-01-30T10:55:16;10.60;91.80
22379;DHT22;11357;49.990;7.370;2024-01-30T10:57:43;10.70;91.80
22379;DHT22;11357;49.990;7.370;2024-01-30T11:00:11;10.80;91.80
22379;DHT22;11357;49.990;7.370;2024-01-30T11:02:45;11.00;91.80
22379;DHT22;11357;49.990;7.370;2024-01-30T11:05:12;11.10;91.60
22379;DHT22;11357;49.990;7.370;2024-01-30T11:07:39;11.30;91.50
22379;DHT22;11357;49.990;7.370;2024-01-30T11:10:06;11.40;91.40
22379;DHT22;11357;49.990;7.370;2024-01-30T11:12:39;11.50;91.40
22379;DHT22;11357;49.990;7.370;2024-01-30T11:15:12;11.50;91.70
22379;DHT22;11357;49.990;7.370;2024-01-30T11:20:22;11.60;91.40
22379;DHT22;11357;49.990;7.370;2024-01-30T11:22:51;11.70;91.40
22379;DHT22;11357;49.990;7.370;2024-01-30T11:25:19;11.80;91.40
22379;DHT22;11357;49.990;7.370;2024-01-30T11:27:46;11.90;91.40
22379;DHT22;11357;49.990;7.370;2024-01-30T11:33:04;12.20;91.40
22379;DHT22;11357;49.990;7.370;2024-01-30T11:35:37;12.30;91.20
22379;DHT22;11357;49.990;7.370;2024-01-30T11:38:05;12.40;91.10
22379;DHT22;11357;49.990;7.370;2024-01-30T11:40:31;12.40;91.00
22379;DHT22;11357;49.990;7.370;2024-01-30T11:42:59;12.40;90.90
22379;DHT22;11357;49.990;7.370;2024-01-30T11:45:26;12.40;90.90
22379;DHT22;11357;49.990;7.370;2024-01-30T11:47:53;12.40;91.00
22379;DHT22;11357;49.990;7.370;2024-01-30T11:50:19;12.40;91.00
22379;DHT22;11357;49.990;7.370;2024-01-30T11:52:44;12.50;91.00
22379;DHT22;11357;49.990;7.370;2024-01-30T11:55:10;12.70;91.00
22379;DHT22;11357;49.990;7.370;2024-01-30T11:57:36;12.80;90.90
22379;DHT22;11357;49.990;7.370;2024-01-30T12:00:05;13.00;90.80
22379;DHT22;11357;49.990;7.370;2024-01-30T12:02:39;13.10;90.80
22379;DHT22;11357;49.990;7.370;2024-01-30T12:05:05;13.20;90.80
22379;DHT22;11357;49.990;7.370;2024-01-30T12:07:31;13.40;90.80
22379;DHT22;11357;49.990;7.370;2024-01-30T12:09:57;13.40;90.90
22379;DHT22;11357;49.990;7.370;2024-01-30T12:12:26;13.50;90.90
22379;DHT22;11357;49.990;7.370;2024-01-30T12:14:53;13.50;90.90
22379;DHT22;11357;49.990;7.370;2024-01-30T12:17:29;13.60;90.90
22379;DHT22;11357;49.990;7.370;2024-01-30T12:20:11;13.70;90.90
22379;DHT22;11357;49.990;7.370;2024-01-30T12:22:41;13.80;90.90
22379;DHT22;11357;49.990;7.370;2024-01-30T12:25:15;13.80;90.70
22379;DHT22;11357;49.990;7.370;2024-01-30T12:27:48;13.80;90.60
22379;DHT22;11357;49.990;7.370;2024-01-30T12:30:19;13.80;90.60
22379;DHT22;11357;49.990;7.370;2024-01-30T12:32:47;13.70;90.70
22379;DHT22;11357;49.990;7.370;2024-01-30T12:35:19;13.70;90.80
22379;DHT22;11357;49.990;7.370;2024-01-30T12:37:46;13.60;90.90
22379;DHT22;11357;49.990;7.370;2024-01-30T12:40:13;13.50;90.90
22379;DHT22;11357;49.990;7.370;2024-01-30T12:42:43;13.50;90.90
22379;DHT22;11357;49.990;7.370;2024-01-30T12:45:11;13.40;90.90
22379;DHT22;11357;49.990;7.370;2024-01-30T12:47:37;13.40;91.00
22379;DHT22;11357;49.990;7.370;2024-01-30T12:50:03;13.40;90.90
22379;DHT22;11357;49.990;7.370;2024-01-30T12:52:29;13.40;90.90
22379;DHT22;11357;49.990;7.370;2024-01-30T12:54:54;13.40;91.00
22379;DHT22;11357;49.990;7.370;2024-01-30T12:57:20;13.30;91.00
22379;DHT22;11357;49.990;7.370;2024-01-30T12:59:47;13.30;91.00
22379;DHT22;11357;49.990;7.370;2024-01-30T13:02:13;13.20;91.30
22379;DHT22;11357;49.990;7.370;2024-01-30T13:04:39;13.20;91.00
22379;DHT22;11357;49.990;7.370;2024-01-30T13:07:05;13.20;91.10
22379;DHT22;11357;49.990;7.370;2024-01-30T13:09:31;13.20;91.20
22379;DHT22;11357;49.990;7.370;2024-01-30T13:11:59;13.10;91.30
22379;DHT22;11357;49.990;7.370;2024-01-30T13:14:28;13.10;91.40
22379;DHT22;11357;49.990;7.370;2024-01-30T13:16:53;13.00;91.50
22379;DHT22;11357;49.990;7.370;2024-01-30T13:19:19;13.00;91.70
22379;DHT22;11357;49.990;7.370;2024-01-30T13:21:45;12.90;91.70
22379;DHT22;11357;49.990;7.370;2024-01-30T13:24:10;12.90;91.80
22379;DHT22;11357;49.990;7.370;2024-01-30T13:26:36;13.00;91.90
22379;DHT22;11357;49.990;7.370;2024-01-30T13:29:02;13.00;92.00
22379;DHT22;11357;49.990;7.370;2024-01-30T13:31:29;13.10;92.00
22379;DHT22;11357;49.990;7.370;2024-01-30T13:33:55;13.10;91.90
22379;DHT22;11357;49.990;7.370;2024-01-30T13:36:21;13.10;91.90
22379;DHT22;11357;49.990;7.370;2024-01-30T13:38:47;13.10;91.90
22379;DHT22;11357;49.990;7.370;2024-01-30T13:41:13;13.10;91.90
22379;DHT22;11357;49.990;7.370;2024-01-30T13:43:39;13.10;91.90
22379;DHT22;11357;49.990;7.370;2024-01-30T13:46:04;13.10;92.00
22379;DHT22;11357;49.990;7.370;2024-01-30T13:48:31;13.10;92.00
22379;DHT22;11357;49.990;7.370;2024-01-30T13:50:57;13.10;92.00
22379;DHT22;11357;49.990;7.370;2024-01-30T13:53:22;13.10;92.00
22379;DHT22;11357;49.990;7.370;2024-01-30T13:55:48;13.10;92.10
22379;DHT22;11357;49.990;7.370;2024-01-30T13:58:14;13.10;92.10
22379;DHT22;11357;49.990;7.370;2024-01-30T14:00:40;13.00;92.00
22379;DHT22;11357;49.990;7.370;2024-01-30T14:03:05;13.00;92.10
22379;DHT22;11357;49.990;7.370;2024-01-30T14:05:31;13.00;92.20
22379;DHT22;11357;49.990;7.370;2024-01-30T14:07:57;13.00;92.20
22379;DHT22;11357;49.990;7.370;2024-01-30T14:10:23;13.00;92.20
22379;DHT22;11357;49.990;7.370;2024-01-30T14:12:49;12.90;92.20
22379;DHT22;11357;49.990;7.370;2024-01-30T14:15:15;12.90;92.20
22379;DHT22;11357;49.990;7.370;2024-01-30T14:17:43;12.90;92.20
22379;DHT22;11357;49.990;7.370;2024-01-30T14:20:10;12.90;92.20
22379;DHT22;11357;49.990;7.370;2024-01-30T14:22:36;12.90;92.30
22379;DHT22;11357;49.990;7.370;2024-01-30T14:25:02;12.90;92.30
22379;DHT22;11357;49.990;7.370;2024-01-30T14:27:31;12.90;92.30
22379;DHT22;11357;49.990;7.370;2024-01-30T14:29:57;12.90;92.30
22379;DHT22;11357;49.990;7.370;2024-01-30T14:32:23;13.00;92.40
22379;DHT22;11357;49.990;7.370;2024-01-30T14:34:50;13.00;92.30
22379;DHT22;11357;49.990;7.370;2024-01-30T14:37:16;13.00;92.40
22379;DHT22;11357;49.990;7.370;2024-01-30T14:39:42;13.00;92.40
22379;DHT22;11357;49.990;7.370;2024-01-30T14:42:07;13.00;92.40
22379;DHT22;11357;49.990;7.370;2024-01-30T14:44:33;13.00;92.40
22379;DHT22;11357;49.990;7.370;2024-01-30T14:46:59;12.90;92.50
22379;DHT22;11357;49.990;7.370;2024-01-30T14:49:25;12.80;92.50
22379;DHT22;11357;49.990;7.370;2024-01-30T14:51:51;12.70;92.60
22379;DHT22;11357;49.990;7.370;2024-01-30T14:54:16;12.70;92.70
22379;DHT22;11357;49.990;7.370;2024-01-30T14:56:42;12.60;92.70
22379;DHT22;11357;49.990;7.370;2024-01-30T14:59:08;12.60;92.70
22379;DHT22;11357;49.990;7.370;2024-01-30T15:01:33;12.50;92.80
22379;DHT22;11357;49.990;7.370;2024-01-30T15:03:59;12.50;92.90
22379;DHT22;11357;49.990;7.370;2024-01-30T15:06:25;12.50;92.90
22379;DHT22;11357;49.990;7.370;2024-01-30T15:08:52;12.50;92.90
22379;DHT22;11357;49.990;7.370;2024-01-30T15:11:18;12.50;92.90
22379;DHT22;11357;49.990;7.370;2024-01-30T15:13:44;12.50;92.90
22379;DHT22;11357;49.990;7.370;2024-01-30T15:16:09;12.50;92.90
22379;DHT22;11357;49.990;7.370;2024-01-30T15:18:35;12.50;92.90
22379;DHT22;11357;49.990;7.370;2024-01-30T15:21:01;12.50;92.90
22379;DHT22;11357;49.990;7.370;2024-01-30T15:23:27;12.40;92.90
22379;DHT22;11357;49.990;7.370;2024-01-30T15:25:53;12.40;92.90
22379;DHT22;11357;49.990;7.370;2024-01-30T15:28:18;12.40;93.00
22379;DHT22;11357;49.990;7.370;2024-01-30T15:30:45;12.30;93.00
22379;DHT22;11357;49.990;7.370;2024-01-30T15:33:10;12.30;93.00
22379;DHT22;11357;49.990;7.370;2024-01-30T15:35:36;12.30;93.10
22379;DHT22;11357;49.990;7.370;2024-01-30T15:38:04;12.20;93.10
22379;DHT22;11357;49.990;7.370;2024-01-30T15:40:34;12.20;93.20
22379;DHT22;11357;49.990;7.370;2024-01-30T15:42:59;12.20;93.20
22379;DHT22;11357;49.990;7.370;2024-01-30T15:45:25;12.20;93.20
22379;DHT22;11357;49.990;7.370;2024-01-30T15:47:50;12.20;93.20
22379;DHT22;11357;49.990;7.370;2024-01-30T15:50:16;12.20;93.20
22379;DHT22;11357;49.990;7.370;2024-01-30T15:52:42;12.30;93.20
22379;DHT22;11357;49.990;7.370;2024-01-30T15:55:07;12.30;93.10
22379;DHT22;11357;49.990;7.370;2024-01-30T15:57:33;12.40;93.00
22379;DHT22;11357;49.990;7.370;2024-01-30T15:59:59;12.40;93.00
22379;DHT22;11357;49.990;7.370;2024-01-30T16:02:24;12.40;93.00
22379;DHT22;11357;49.990;7.370;2024-01-30T16:04:50;12.40;93.00
22379;DHT22;11357;49.990;7.370;2024-01-30T16:07:16;12.40;93.10
22379;DHT22;11357;49.990;7.370;2024-01-30T16:09:41;12.30;93.20
22379;DHT22;11357;49.990;7.370;2024-01-30T16:12:08;12.30;93.30
22379;DHT22;11357;49.990;7.370;2024-01-30T16:14:34;12.30;93.40
22379;DHT22;11357;49.990;7.370;2024-01-30T16:17:01;12.20;93.40
22379;DHT22;11357;49.990;7.370;2024-01-30T16:19:27;12.20;93.50
22379;DHT22;11357;49.990;7.370;2024-01-30T16:21:53;12.10;93.60
22379;DHT22;11357;49.990;7.370;2024-01-30T16:24:19;12.10;93.70
22379;DHT22;11357;49.990;7.370;2024-01-30T16:26:48;12.10;93.70
22379;DHT22;11357;49.990;7.370;2024-01-30T16:29:14;12.10;93.80
22379;DHT22;11357;49.990;7.370;2024-01-30T16:31:40;12.00;93.90
22379;DHT22;11357;49.990;7.370;2024-01-30T16:34:05;12.00;94.00
22379;DHT22;11357;49.990;7.370;2024-01-30T16:36:31;12.00;94.10
22379;DHT22;11357;49.990;7.370;2024-01-30T16:38:56;12.00;94.10
22379;DHT22;11357;49.990;7.370;2024-01-30T16:41:24;11.90;94.20
22379;DHT22;11357;49.990;7.370;2024-01-30T16:43:51;11.90;94.30